Time;durP1;ratioP1;P1;durP2;ratioP2;P2;SDS_P1;SDS_P2;PMS_P1;PMS_P2;Temp;Humidity;BMP_temperature;BMP_pressure;BME280_temperature;BME280_humidity;BME280_pressure;Samples;Min_cycle;Max_cycle;Signal;HPM_P1;HPM_P2
2024/01/24 00:58:20;;;;;;;66.25;30.35;;;-0.80;99.90;;;;;;4718024;26;20081;-80
2024/01/24 05:49:28;;;;;;;79.60;37.63;;;-1.30;99.90;;;;;;6111981;23;20033;-79
2024/01/24 05:51:54;;;;;;;77.72;39.15;;;-1.20;99.90;;;;;;5037456;28;20133;-80
2024/01/24 05:54:20;;;;;;;;;;;-1.10;99.90;;;;;;5058327;28;20038;-80
2024/01/24 05:56:46;;;;;;;74.07;35.03;;;-1.20;99.90;;;;;;5057516;28;20005;-80
2024/01/24 05:59:12;;;;;;;;;;;-1.20;99.90;;;;;;5033932;28;20029;-79
2024/01/24 06:01:38;;;;;;;63.80;30.70;;;-1.20;99.90;;;;;;5030720;28;19896;-79
2024/01/24 06:04:03;;;;;;;62.65;31.13;;;-1.20;99.90;;;;;;5034606;28;20009;-79
2024/01/24 06:06:29;;;;;;;;;;;-1.20;99.90;;;;;;5038362;28;20113;-79
2024/01/24 06:08:55;;;;;;;66.93;31.63;;;-0.80;99.90;;;;;;5034541;28;20274;-78
2024/01/24 06:11:20;;;;;;;;;;;-1.00;99.90;;;;;;5013479;28;20391;-80
2024/01/24 06:13:47;;;;;;;61.45;28.63;;;-0.30;99.90;;;;;;5030906;28;20625;-79
2024/01/24 06:16:13;;;;;;;58.22;26.30;;;0.00;99.90;;;;;;5011955;28;20064;-79
2024/01/24 06:18:38;;;;;;;;;;;-0.50;99.90;;;;;;5030699;28;20026;-79
2024/01/24 06:21:04;;;;;;;60.08;28.02;;;0.10;99.90;;;;;;5013715;28;20453;-79
2024/01/24 06:23:29;;;;;;;;;;;-0.10;99.90;;;;;;5011628;28;20033;-78
2024/01/24 06:25:55;;;;;;;62.20;28.92;;;0.60;99.90;;;;;;5015585;28;19898;-79
2024/01/24 06:28:21;;;;;;;;;;;-0.30;99.90;;;;;;5035485;28;20034;-79
2024/01/24 06:30:47;;;;;;;57.15;26.00;;;-0.40;99.90;;;;;;5035695;28;19890;-79
2024/01/24 06:33:12;;;;;;;;;;;0.10;99.90;;;;;;5035619;28;20037;-79
2024/01/24 06:35:38;;;;;;;57.15;23.10;;;-0.40;99.90;;;;;;5017833;28;19909;-79
2024/01/24 06:38:04;;;;;;;;;;;-0.20;99.90;;;;;;5018164;28;20044;-79
2024/01/24 06:40:30;;;;;;;49.30;21.20;;;-0.50;99.90;;;;;;5019248;28;20000;-79
2024/01/24 06:42:55;;;;;;;;;;;0.60;99.90;;;;;;5019532;28;20050;-79
2024/01/24 06:45:21;;;;;;;86.10;35.55;;;-0.30;99.90;;;;;;5034687;28;19905;-78
2024/01/24 06:47:47;;;;;;;;;;;0.20;99.90;;;;;;5018746;28;20056;-79
2024/01/24 06:50:13;;;;;;;81.20;35.92;;;-0.10;99.90;;;;;;5019120;28;19913;-79
2024/01/24 06:52:40;;;;;;;;;;;0.50;99.90;;;;;;5036652;28;20030;-78
2024/01/24 06:55:06;;;;;;;74.70;35.83;;;-0.20;99.90;;;;;;5034200;28;19913;-79
2024/01/24 06:57:32;;;;;;;74.32;34.88;;;-0.10;99.90;;;;;;5036151;28;20106;-79
2024/01/24 06:59:57;;;;;;;;;;;0.10;99.90;;;;;;5018151;28;20030;-79
2024/01/24 07:02:23;;;;;;;114.15;48.40;;;0.00;99.90;;;;;;5018835;28;19919;-79
2024/01/24 07:04:48;;;;;;;;;;;0.00;99.90;;;;;;5036003;28;20026;-79
2024/01/24 07:07:14;;;;;;;68.05;29.73;;;0.30;99.90;;;;;;5035145;28;19889;-79
2024/01/24 07:09:40;;;;;;;;;;;0.20;99.90;;;;;;5036351;28;20030;-79
2024/01/24 07:12:06;;;;;;;72.28;32.83;;;0.40;99.90;;;;;;5034636;28;19898;-79
2024/01/24 07:14:31;;;;;;;;;;;0.40;99.90;;;;;;5033750;28;20010;-79
2024/01/24 07:16:57;;;;;;;60.35;30.13;;;0.40;99.90;;;;;;5014567;28;19924;-79
2024/01/24 07:19:22;;;;;;;;;;;0.50;99.90;;;;;;5011625;28;20002;-78
2024/01/24 07:21:48;;;;;;;53.05;25.70;;;0.80;99.90;;;;;;5024433;28;19905;-79
2024/01/24 07:24:13;;;;;;;;;;;0.50;99.90;;;;;;5006105;28;20057;-77
2024/01/24 07:26:39;;;;;;;68.32;32.75;;;0.50;99.90;;;;;;5007207;28;19992;-79
2024/01/24 07:29:05;;;;;;;;;;;0.80;99.90;;;;;;5009388;28;20034;-79
2024/01/24 07:31:30;;;;;;;54.78;26.52;;;0.80;99.90;;;;;;5022851;28;19905;-79
2024/01/24 07:33:56;;;;;;;;;;;0.60;99.90;;;;;;5010748;28;20538;-79
2024/01/24 07:36:22;;;;;;;57.28;27.55;;;0.60;99.90;;;;;;5028985;28;19917;-79
2024/01/24 07:38:48;;;;;;;;;;;0.60;99.90;;;;;;5002491;28;20022;-78
2024/01/24 07:41:14;;;;;;;60.95;29.95;;;0.60;99.90;;;;;;4999648;28;19905;-79
2024/01/24 07:43:40;;;;;;;68.28;30.90;;;0.60;99.90;;;;;;4999409;28;20033;-76
2024/01/24 07:46:06;;;;;;;;;;;0.60;99.90;;;;;;5024196;28;20037;-79
2024/01/24 07:48:31;;;;;;;76.68;36.13;;;0.70;99.90;;;;;;5006468;28;19905;-79
2024/01/24 07:50:57;;;;;;;;;;;0.80;99.90;;;;;;5022727;28;20127;-78
2024/01/24 07:53:23;;;;;;;71.05;31.17;;;0.80;99.90;;;;;;5019402;28;19952;-78
2024/01/24 07:55:49;;;;;;;;;;;1.00;99.90;;;;;;5017368;28;20026;-78
2024/01/24 07:58:14;;;;;;;86.38;42.20;;;0.90;99.90;;;;;;5001314;28;19941;-78
2024/01/24 08:00:40;;;;;;;;;;;0.90;99.90;;;;;;5001326;28;20550;-79
2024/01/24 08:03:07;;;;;;;66.18;32.58;;;1.00;99.90;;;;;;5019128;28;19975;-79
2024/01/24 08:05:33;;;;;;;75.68;37.22;;;1.10;99.90;;;;;;5002126;28;20018;-79
2024/01/24 08:08:00;;;;;;;99.85;49.80;;;1.10;99.90;;;;;;5019298;28;20029;-78
2024/01/24 08:10:26;;;;;;;224.45;106.97;;;1.20;99.90;;;;;;5001384;28;20172;-78
2024/01/24 08:12:51;;;;;;;;;;;1.30;99.90;;;;;;5000789;28;20072;-78
2024/01/24 08:15:17;;;;;;;84.65;43.60;;;1.30;99.90;;;;;;5001328;28;20111;-79
2024/01/24 08:17:43;;;;;;;;;;;1.30;99.90;;;;;;5002437;28;20037;-78
2024/01/24 08:20:09;;;;;;;72.72;35.80;;;1.30;99.90;;;;;;5020135;28;19910;-78
2024/01/24 08:22:35;;;;;;;;;;;1.40;99.90;;;;;;5002290;28;20025;-79
2024/01/24 08:25:02;;;;;;;83.15;37.92;;;1.40;99.90;;;;;;5019940;28;19910;-78
2024/01/24 08:27:27;;;;;;;115.32;50.92;;;1.50;99.90;;;;;;5001349;28;20064;-78
2024/01/24 08:29:53;;;;;;;;;;;1.50;99.90;;;;;;4999872;28;20077;-77
2024/01/24 08:32:19;;;;;;;87.30;43.88;;;1.50;99.90;;;;;;5016002;28;19906;-78
2024/01/24 08:34:44;;;;;;;;;;;1.50;99.90;;;;;;4998437;28;20109;-77
2024/01/24 08:37:12;;;;;;;108.60;56.42;;;1.60;99.90;;;;;;5017875;28;19914;-77
2024/01/24 08:39:39;;;;;;;84.30;43.55;;;1.50;99.90;;;;;;5002895;28;20049;-78
2024/01/24 08:42:04;;;;;;;90.03;42.22;;;1.50;99.90;;;;;;5016218;28;20031;-77
2024/01/24 08:44:30;;;;;;;;;;;1.50;99.90;;;;;;5015173;28;20036;-77
2024/01/24 08:46:56;;;;;;;114.25;50.70;;;1.60;99.90;;;;;;4996914;28;19913;-77
2024/01/24 08:49:21;;;;;;;;;;;1.60;99.90;;;;;;4997997;28;20030;-78
2024/01/24 08:51:47;;;;;;;156.35;74.88;;;1.70;99.90;;;;;;4996635;28;19917;-78
2024/01/24 08:54:13;;;;;;;;;;;1.80;99.90;;;;;;5014107;28;20033;-78
2024/01/24 08:56:39;;;;;;;138.27;64.57;;;1.90;99.90;;;;;;5014916;28;20683;-78
2024/01/24 08:59:04;;;;;;;;;;;2.00;99.90;;;;;;5014083;28;20026;-78
2024/01/24 09:01:30;;;;;;;133.60;59.88;;;1.90;99.90;;;;;;5014799;28;19905;-78
2024/01/24 09:03:56;;;;;;;;;;;2.00;99.90;;;;;;4995491;28;20026;-78
2024/01/24 09:06:22;;;;;;;115.18;51.05;;;2.10;99.90;;;;;;4995404;28;20152;-77
2024/01/24 09:08:52;;;;;;;114.25;53.05;;;1.90;99.90;;;;;;4994931;28;20410;-77
2024/01/24 09:11:18;;;;;;;87.40;43.53;;;2.00;99.90;;;;;;4995104;28;20091;-77
2024/01/24 09:13:48;;;;;;;87.75;48.55;;;2.30;99.90;;;;;;4995588;28;20065;-78
2024/01/24 09:16:15;;;;;;;111.80;60.92;;;2.20;99.90;;;;;;4995563;28;20076;-77
2024/01/24 09:18:42;;;;;;;87.65;48.33;;;2.40;99.90;;;;;;4993955;28;20038;-76
2024/01/24 09:21:07;;;;;;;56.60;32.80;;;2.20;99.90;;;;;;5012123;28;20742;-77
2024/01/24 09:23:33;;;;;;;;;;;2.10;99.90;;;;;;4996713;28;20026;-78
2024/01/24 09:25:58;;;;;;;74.65;36.58;;;2.10;99.90;;;;;;5011729;28;19905;-77
2024/01/24 09:28:25;;;;;;;69.75;34.08;;;2.40;99.90;;;;;;5011897;28;20053;-76
2024/01/24 09:30:51;;;;;;;;;;;2.30;99.90;;;;;;5011546;28;20029;-77
2024/01/24 09:33:17;;;;;;;53.80;25.90;;;2.30;99.90;;;;;;4994601;28;19915;-76
2024/01/24 09:35:44;;;;;;;;;;;2.30;99.90;;;;;;4995313;28;20044;-78
2024/01/24 09:38:10;;;;;;;39.10;17.23;;;2.30;99.90;;;;;;5011456;28;19909;-77
2024/01/24 09:40:35;;;;;;;;;;;2.30;99.90;;;;;;5014506;28;20030;-78
2024/01/24 09:43:01;;;;;;;40.25;20.50;;;2.30;99.90;;;;;;4995095;28;19905;-77
2024/01/24 09:45:27;;;;;;;;;;;2.60;99.90;;;;;;4995204;28;20187;-77
2024/01/24 09:47:57;;;;;;;31.65;15.00;;;2.70;99.90;;;;;;4994933;28;19906;-77
2024/01/24 09:50:23;;;;;;;40.47;20.55;;;2.50;99.90;;;;;;5013372;28;20560;-77
2024/01/24 09:52:50;;;;;;;35.70;18.13;;;2.50;99.90;;;;;;4996078;28;20041;-76
2024/01/24 09:55:18;;;;;;;29.13;16.15;;;2.40;99.90;;;;;;5013389;28;20052;-76
2024/01/24 09:57:45;;;;;;;423.60;208.23;;;2.30;99.90;;;;;;5013864;28;20026;-77
2024/01/24 10:00:14;;;;;;;67.50;30.83;;;2.40;99.90;;;;;;4995469;28;20022;-76
2024/01/24 10:02:43;;;;;;;37.13;18.33;;;2.40;99.90;;;;;;4996164;28;20044;-77
2024/01/24 10:05:15;;;;;;;51.75;25.13;;;2.50;99.90;;;;;;5012384;28;20084;-78
2024/01/24 10:07:41;;;;;;;60.42;30.17;;;2.50;99.90;;;;;;5011979;28;20030;-77
2024/01/24 10:10:15;;;;;;;56.08;29.33;;;2.60;99.90;;;;;;5010426;28;20406;-77
2024/01/24 10:12:44;;;;;;;39.97;20.75;;;2.50;99.90;;;;;;4994138;28;20483;-76
2024/01/24 10:15:11;;;;;;;42.20;20.05;;;2.60;99.90;;;;;;5010417;28;20498;-76
2024/01/24 10:17:41;;;;;;;35.17;16.80;;;2.60;99.90;;;;;;4994304;28;20056;-77
2024/01/24 10:20:09;;;;;;;33.25;16.50;;;2.60;99.90;;;;;;4997340;28;20049;-77
2024/01/24 10:22:34;;;;;;;43.15;20.77;;;2.60;99.90;;;;;;4997158;28;20573;-77
2024/01/24 10:25:00;;;;;;;;;;;2.50;99.90;;;;;;4998546;28;20113;-76
2024/01/24 10:27:26;;;;;;;36.38;20.83;;;2.40;99.90;;;;;;4998308;28;19949;-77
2024/01/24 10:29:52;;;;;;;43.05;22.58;;;2.50;99.90;;;;;;5000532;28;20065;-76
2024/01/24 10:32:17;;;;;;;;;;;2.50;99.90;;;;;;5002023;28;20045;-77
2024/01/24 10:34:43;;;;;;;19.38;9.95;;;2.40;99.90;;;;;;4998829;28;19913;-77
2024/01/24 10:37:09;;;;;;;;;;;2.50;99.90;;;;;;4998827;28;20490;-77
2024/01/24 10:39:36;;;;;;;28.75;12.27;;;2.50;99.90;;;;;;5016042;28;19909;-77
2024/01/24 10:42:06;;;;;;;20.40;11.02;;;2.60;99.90;;;;;;4998272;28;20034;-77
2024/01/24 10:44:37;;;;;;;48.00;20.63;;;2.60;99.90;;;;;;4998482;28;20442;-77
2024/01/24 10:47:03;;;;;;;61.17;25.83;;;2.60;99.90;;;;;;5016183;28;20030;-76
2024/01/24 10:49:30;;;;;;;36.15;16.58;;;2.70;99.90;;;;;;5016024;28;20455;-77
2024/01/24 10:51:56;;;;;;;35.10;16.17;;;2.60;99.90;;;;;;4998595;28;20518;-77
2024/01/24 10:54:22;;;;;;;36.35;14.52;;;2.70;99.90;;;;;;5002222;28;20049;-77
2024/01/24 10:56:50;;;;;;;;;;;2.70;99.90;;;;;;5007430;28;20041;-78
2024/01/24 10:59:16;;;;;;;36.08;20.13;;;3.00;99.90;;;;;;5019006;28;19960;-78
2024/01/24 11:01:42;;;;;;;20.30;10.02;;;2.70;99.90;;;;;;5017815;28;20029;-78
2024/01/24 11:04:08;;;;;;;;;;;2.70;99.90;;;;;;5017797;28;20030;-76
2024/01/24 11:06:39;;;;;;;22.45;10.80;;;2.80;99.90;;;;;;5016028;28;19912;-77
2024/01/24 11:09:20;;;;;;;25.15;11.48;;;2.90;99.90;;;;;;5017457;28;20029;-76
2024/01/24 11:11:47;;;;;;;30.67;14.02;;;2.90;99.90;;;;;;5001377;28;20025;-79
2024/01/24 11:14:26;;;;;;;39.40;21.70;;;3.00;99.90;;;;;;5001238;28;20505;-78
2024/01/24 11:16:51;;;;;;;37.88;19.25;;;3.00;99.90;;;;;;5001967;28;20038;-79
2024/01/24 11:19:18;;;;;;;;;;;3.20;99.90;;;;;;5019511;28;20025;-77
2024/01/24 11:21:43;;;;;;;23.33;10.57;;;3.20;99.90;;;;;;5015348;28;19992;-77
2024/01/24 11:24:09;;;;;;;;;;;3.30;99.90;;;;;;4999066;28;20084;-78
2024/01/24 11:26:37;;;;;;;58.67;25.38;;;3.20;99.90;;;;;;5014912;28;19909;-77
2024/01/24 11:29:21;;;;;;;25.35;11.32;;;3.30;99.90;;;;;;4997974;28;20033;-77
2024/01/24 11:31:47;;;;;;;20.52;8.35;;;3.40;99.90;;;;;;4998633;28;20140;-77
2024/01/24 11:34:13;;;;;;;;;;;3.50;99.90;;;;;;5016710;28;20494;-77
2024/01/24 11:36:51;;;;;;;16.55;9.65;;;3.30;99.90;;;;;;5015614;28;19909;-77
2024/01/24 11:39:30;;;;;;;27.02;13.93;;;3.40;99.90;;;;;;4997174;28;20037;-77
2024/01/24 11:42:32;;;;;;;30.45;12.93;;;3.40;99.90;;;;;;4997447;28;20022;-78
2024/01/24 11:45:34;;;;;;;40.60;20.65;;;3.40;99.90;;;;;;5014446;28;20026;-78
2024/01/24 11:47:59;;;;;;;54.88;24.35;;;3.50;99.90;;;;;;4919172;29;20066;-77
2024/01/24 11:50:25;;;;;;;;;;;3.80;99.90;;;;;;4999736;28;20078;-78
2024/01/24 11:52:58;;;;;;;19.15;7.93;;;3.70;99.90;;;;;;5015335;28;19928;-76
2024/01/24 11:55:23;;;;;;;22.33;9.35;;;3.70;99.90;;;;;;5014300;28;20100;-77
2024/01/24 11:57:49;;;;;;;;;;;3.70;99.90;;;;;;4997457;28;20525;-77
2024/01/24 12:00:15;;;;;;;14.27;7.20;;;3.50;99.90;;;;;;5014599;28;19909;-78
2024/01/24 12:02:41;;;;;;;29.98;14.15;;;3.40;99.90;;;;;;5014692;28;20064;-78
2024/01/24 12:05:07;;;;;;;;;;;3.50;99.90;;;;;;4997218;28;20057;-77
2024/01/24 12:07:33;;;;;;;17.30;8.30;;;3.50;99.90;;;;;;5014083;28;19912;-78
2024/01/24 12:09:58;;;;;;;27.98;13.32;;;3.40;99.90;;;;;;5015314;28;20487;-78
2024/01/24 12:12:24;;;;;;;;;;;3.40;99.90;;;;;;5016085;28;20036;-78
2024/01/24 12:14:50;;;;;;;34.63;16.70;;;3.30;99.90;;;;;;4996816;28;19912;-78
2024/01/24 12:17:16;;;;;;;;;;;3.40;99.90;;;;;;4997691;28;20038;-78
2024/01/24 12:19:45;;;;;;;39.10;19.30;;;3.50;99.90;;;;;;5013134;28;20354;-78
2024/01/24 12:22:12;;;;;;;38.30;19.27;;;3.40;99.90;;;;;;5014258;28;20026;-77
2024/01/24 12:24:41;;;;;;;68.03;34.83;;;3.40;99.90;;;;;;4996384;28;20026;-77
2024/01/24 12:27:10;;;;;;;157.55;81.90;;;3.50;99.90;;;;;;4996453;28;20026;-78
2024/01/24 12:29:36;;;;;;;200.55;100.45;;;3.50;99.90;;;;;;5013108;28;20065;-77
2024/01/24 12:32:03;;;;;;;;;;;3.50;99.90;;;;;;4996620;28;20072;-77
2024/01/24 12:34:31;;;;;;;189.47;96.50;;;3.50;99.90;;;;;;4996270;28;19913;-77
2024/01/24 12:36:58;;;;;;;184.50;96.35;;;3.50;99.90;;;;;;4996152;28;20331;-77
2024/01/24 12:39:29;;;;;;;198.15;94.10;;;3.50;99.90;;;;;;5014104;28;20061;-78
2024/01/24 12:41:55;;;;;;;196.27;95.45;;;3.60;99.90;;;;;;5013493;28;20060;-76
2024/01/24 12:44:21;;;;;;;;;;;3.50;99.90;;;;;;4997004;28;20479;-77
2024/01/24 12:46:54;;;;;;;133.63;68.18;;;3.60;99.90;;;;;;5014261;28;19909;-77
2024/01/24 12:49:20;;;;;;;71.13;38.85;;;3.60;99.90;;;;;;4996927;28;20045;-77
2024/01/24 12:51:46;;;;;;;;;;;3.50;99.90;;;;;;5015520;28;20425;-77
2024/01/24 12:54:12;;;;;;;25.37;14.00;;;3.60;99.90;;;;;;5014538;28;20644;-77
2024/01/24 12:56:37;;;;;;;;;;;3.50;99.90;;;;;;4995510;28;20041;-77
2024/01/24 12:59:03;;;;;;;37.05;20.25;;;3.60;99.90;;;;;;5012076;28;19909;-77
2024/01/24 13:01:29;;;;;;;;;;;3.60;99.90;;;;;;5012354;28;20029;-76
2024/01/24 13:03:54;;;;;;;24.45;10.77;;;3.50;99.90;;;;;;5013963;28;19912;-77
2024/01/24 13:06:20;;;;;;;;;;;3.40;99.90;;;;;;4996228;28;20622;-77
2024/01/24 13:08:46;;;;;;;51.10;23.23;;;3.50;99.90;;;;;;5013479;28;19906;-77
2024/01/24 13:11:12;;;;;;;;;;;3.40;99.90;;;;;;5016028;28;20566;-77
2024/01/24 13:13:37;;;;;;;83.47;36.20;;;3.50;99.90;;;;;;5014837;28;19906;-78
2024/01/24 13:16:03;;;;;;;;;;;3.60;99.90;;;;;;5019170;28;20026;-77
2024/01/24 13:18:29;;;;;;;76.05;32.17;;;3.50;99.90;;;;;;5015784;28;19913;-78
2024/01/24 13:20:55;;;;;;;;;;;3.40;99.90;;;;;;5014151;28;20033;-77
2024/01/24 13:23:20;;;;;;;66.82;37.03;;;3.20;99.90;;;;;;5012790;28;20281;-77
2024/01/24 13:25:46;;;;;;;;;;;3.20;99.90;;;;;;4996562;28;20040;-78
2024/01/24 13:28:12;;;;;;;27.77;13.02;;;3.10;99.90;;;;;;5014457;28;19916;-77
2024/01/24 13:30:38;;;;;;;;;;;3.30;99.90;;;;;;5014532;28;20030;-78
2024/01/24 13:33:04;;;;;;;44.75;22.27;;;3.20;99.90;;;;;;5007245;28;19905;-77
2024/01/24 13:35:30;;;;;;;;;;;3.10;99.90;;;;;;5010254;28;20026;-76
2024/01/24 13:37:55;;;;;;;28.48;14.73;;;3.30;99.90;;;;;;5012847;28;19912;-77
2024/01/24 13:40:21;;;;;;;;;;;3.30;99.90;;;;;;5012322;28;20034;-79
2024/01/24 13:42:47;;;;;;;31.05;16.67;;;3.20;99.90;;;;;;5000462;28;19968;-79
2024/01/24 13:45:14;;;;;;;;;;;3.30;99.90;;;;;;5017307;28;20036;-77
2024/01/24 13:47:39;;;;;;;22.73;10.63;;;3.40;99.90;;;;;;5018209;28;19906;-78
2024/01/24 13:50:05;;;;;;;;;;;3.40;99.90;;;;;;5016509;28;20507;-79
2024/01/24 13:52:31;;;;;;;33.55;13.27;;;3.50;99.90;;;;;;5020462;28;20382;-79
2024/01/24 13:54:56;;;;;;;;;;;3.40;99.90;;;;;;5002768;28;20113;-78
2024/01/24 13:57:22;;;;;;;66.32;35.55;;;3.40;99.90;;;;;;5019407;28;19920;-80
2024/01/24 13:59:47;;;;;;;;;;;3.50;99.90;;;;;;5019579;28;20072;-78
2024/01/24 14:02:13;;;;;;;63.33;31.17;;;3.40;99.90;;;;;;5018822;28;19906;-77
2024/01/24 14:04:39;;;;;;;;;;;3.40;99.90;;;;;;5018457;28;20117;-78
2024/01/24 14:07:05;;;;;;;53.67;27.30;;;3.30;99.90;;;;;;5019365;28;19952;-78
2024/01/24 14:09:31;;;;;;;49.10;25.70;;;3.30;99.90;;;;;;5002193;28;20029;-77
2024/01/24 14:11:57;;;;;;;;;;;3.30;99.90;;;;;;5020070;28;20054;-78
2024/01/24 14:14:22;;;;;;;29.48;17.58;;;3.30;99.90;;;;;;5020021;28;20377;-78
2024/01/24 14:16:48;;;;;;;;;;;3.20;99.90;;;;;;5018214;28;20034;-77
2024/01/24 14:19:14;;;;;;;27.02;13.50;;;3.20;99.90;;;;;;5018847;28;19913;-78
2024/01/24 14:21:39;;;;;;;;;;;3.10;99.90;;;;;;5019324;28;20084;-77
2024/01/24 14:24:05;;;;;;;54.17;27.25;;;3.30;99.90;;;;;;5018310;28;19905;-77
2024/01/24 14:26:31;;;;;;;;;;;3.20;99.90;;;;;;5000903;28;20471;-78
2024/01/24 14:28:57;;;;;;;43.17;22.48;;;3.20;99.90;;;;;;5012426;28;19909;-77
2024/01/24 14:31:23;;;;;;;42.53;20.27;;;3.50;99.90;;;;;;5009635;28;20023;-78
2024/01/24 14:33:49;;;;;;;;;;;3.10;99.90;;;;;;5018167;28;20450;-78
2024/01/24 14:36:14;;;;;;;45.80;21.50;;;3.20;99.90;;;;;;5015772;28;19928;-78
2024/01/24 14:38:40;;;;;;;;;;;3.20;99.90;;;;;;5018630;28;20038;-78
2024/01/24 14:41:05;;;;;;;34.53;20.17;;;3.50;99.90;;;;;;4999434;28;19905;-78
2024/01/24 14:43:31;;;;;;;;;;;3.10;99.90;;;;;;4996254;28;20375;-79
2024/01/24 14:45:56;;;;;;;39.22;22.73;;;3.20;99.90;;;;;;5007091;28;20403;-77
2024/01/24 14:48:22;;;;;;;;;;;3.00;99.90;;;;;;4997032;28;20030;-78
2024/01/24 14:50:48;;;;;;;42.92;23.42;;;3.10;99.90;;;;;;5015585;28;20005;-78
2024/01/24 14:53:15;;;;;;;;;;;3.00;99.90;;;;;;5017322;28;20025;-77
2024/01/24 14:55:41;;;;;;;71.65;37.25;;;3.10;99.90;;;;;;5012325;28;19929;-78
2024/01/24 14:58:06;;;;;;;;;;;3.20;99.90;;;;;;5017093;28;20037;-77
2024/01/24 15:00:32;;;;;;;124.40;59.60;;;3.00;99.90;;;;;;4997391;28;19957;-78
2024/01/24 15:02:57;;;;;;;;;;;3.00;99.90;;;;;;5017504;28;20014;-77
2024/01/24 15:05:24;;;;;;;54.30;28.63;;;3.20;99.90;;;;;;5013245;28;20293;-78
2024/01/24 15:07:49;;;;;;;39.80;22.15;;;3.20;99.90;;;;;;5009164;28;20576;-77
2024/01/24 15:10:15;;;;;;;;;;;3.00;99.90;;;;;;5008250;28;20029;-78
2024/01/24 15:12:41;;;;;;;26.02;13.52;;;2.90;99.90;;;;;;5016551;28;19909;-77
2024/01/24 15:15:07;;;;;;;;;;;2.90;99.90;;;;;;5018302;28;20026;-78
2024/01/24 15:17:33;;;;;;;45.85;24.27;;;2.90;99.90;;;;;;5016726;28;20004;-78
2024/01/24 15:19:59;;;;;;;;;;;2.90;99.90;;;;;;5001529;28;20030;-78
2024/01/24 15:22:25;;;;;;;44.15;25.23;;;2.90;99.90;;;;;;5001167;28;19916;-79
2024/01/24 15:24:53;;;;;;;;;;;2.90;99.90;;;;;;5001614;28;20041;-78
2024/01/24 15:27:20;;;;;;;65.78;34.17;;;2.80;99.90;;;;;;4990608;28;20443;-78
2024/01/24 15:29:47;;;;;;;64.68;37.83;;;2.90;99.90;;;;;;5013827;28;20028;-79
2024/01/24 15:32:12;;;;;;;57.70;32.83;;;2.90;99.90;;;;;;5001430;28;20091;-78
2024/01/24 15:34:38;;;;;;;;;;;2.80;99.90;;;;;;5005716;28;20029;-79
2024/01/24 15:37:04;;;;;;;74.72;36.47;;;2.80;99.90;;;;;;5008183;28;19917;-79
2024/01/24 15:39:29;;;;;;;;;;;2.80;99.90;;;;;;5019687;28;20026;-77
2024/01/24 15:41:59;;;;;;;74.10;37.97;;;2.80;99.90;;;;;;5010391;28;19928;-78
2024/01/24 15:44:26;;;;;;;90.13;51.72;;;2.90;99.90;;;;;;5000130;28;20026;-79
2024/01/24 15:46:53;;;;;;;88.18;50.45;;;2.90;99.90;;;;;;5017283;28;20490;-78
2024/01/24 15:49:18;;;;;;;110.90;63.35;;;2.90;99.90;;;;;;5000463;28;20503;-76
2024/01/24 15:51:44;;;;;;;;;;;2.90;99.90;;;;;;5000762;28;20506;-78
2024/01/24 15:54:09;;;;;;;88.88;50.42;;;2.80;99.90;;;;;;4991940;28;19975;-78
2024/01/24 15:56:35;;;;;;;;;;;2.80;99.90;;;;;;4980659;28;20121;-78
2024/01/24 15:59:00;;;;;;;86.40;46.60;;;2.90;99.90;;;;;;5001895;28;20289;-78
2024/01/24 16:01:26;;;;;;;;;;;2.90;99.90;;;;;;5002070;28;20403;-78
2024/01/24 16:03:53;;;;;;;50.75;28.25;;;3.00;99.90;;;;;;4990436;28;19937;-78
2024/01/24 16:06:22;;;;;;;61.45;31.63;;;3.00;99.90;;;;;;5005849;28;20055;-78
2024/01/24 16:08:48;;;;;;;64.43;38.88;;;2.90;99.90;;;;;;4999933;28;20030;-78
2024/01/24 16:11:13;;;;;;;60.28;33.42;;;2.90;99.90;;;;;;4996999;28;20065;-78
2024/01/24 16:13:39;;;;;;;;;;;2.80;99.90;;;;;;5005308;28;20506;-78
2024/01/24 16:16:05;;;;;;;78.38;43.08;;;2.80;99.90;;;;;;4978772;28;20020;-77
2024/01/24 16:18:30;;;;;;;;;;;2.80;99.90;;;;;;4998315;28;20026;-78
2024/01/24 16:20:56;;;;;;;51.88;29.52;;;2.70;99.90;;;;;;4998643;28;19917;-77
2024/01/24 16:23:22;;;;;;;;;;;2.90;99.90;;;;;;4997296;28;20037;-77
2024/01/24 16:25:48;;;;;;;93.60;54.83;;;2.70;99.90;;;;;;4978474;28;19906;-78
2024/01/24 16:28:14;;;;;;;109.35;64.15;;;2.80;99.90;;;;;;4978606;28;20034;-78
2024/01/24 16:30:42;;;;;;;;;;;2.70;99.90;;;;;;4978428;28;20388;-78
2024/01/24 16:33:08;;;;;;;142.00;83.35;;;2.70;99.90;;;;;;4997204;28;20771;-78
2024/01/24 16:35:33;;;;;;;;;;;2.90;99.90;;;;;;4994467;28;20042;-78
2024/01/24 16:37:59;;;;;;;89.07;48.83;;;2.80;99.90;;;;;;4994609;28;19932;-78
2024/01/24 16:40:24;;;;;;;;;;;2.90;99.90;;;;;;4996694;28;20030;-79
2024/01/24 16:42:50;;;;;;;76.45;42.42;;;2.90;99.90;;;;;;4995731;28;19906;-78
2024/01/24 16:45:16;;;;;;;;;;;2.70;99.90;;;;;;4978101;28;20479;-78
2024/01/24 16:47:43;;;;;;;60.50;32.10;;;2.80;99.90;;;;;;4995755;28;19905;-78
2024/01/24 16:50:08;;;;;;;47.00;25.13;;;2.70;99.90;;;;;;4993507;28;20066;-78
2024/01/24 16:52:35;;;;;;;;;;;2.70;99.90;;;;;;4994619;28;20030;-78
2024/01/24 16:55:01;;;;;;;42.85;25.58;;;2.70;99.90;;;;;;4995966;28;20375;-77
2024/01/24 16:57:27;;;;;;;;;;;2.70;99.90;;;;;;4993176;28;20077;-77
2024/01/24 16:59:52;;;;;;;59.13;30.75;;;2.60;99.90;;;;;;4992927;28;19906;-77
2024/01/24 17:02:18;;;;;;;;;;;2.60;99.90;;;;;;4992267;28;20426;-77
2024/01/24 17:04:45;;;;;;;50.40;28.67;;;2.70;99.90;;;;;;4992167;28;19906;-77
2024/01/24 17:07:10;;;;;;;37.65;22.70;;;2.60;99.90;;;;;;4992038;28;20118;-77
2024/01/24 17:09:38;;;;;;;;;;;2.50;99.90;;;;;;4992811;28;20050;-77
2024/01/24 17:12:05;;;;;;;39.60;19.33;;;2.50;99.90;;;;;;4997159;28;19933;-78
2024/01/24 17:14:30;;;;;;;28.10;14.65;;;2.50;99.90;;;;;;4986959;28;20034;-76
2024/01/24 17:16:56;;;;;;;;;;;2.50;99.90;;;;;;4991187;28;20030;-77
2024/01/24 17:19:24;;;;;;;30.00;15.18;;;2.40;99.90;;;;;;4972821;28;19917;-77
2024/01/24 17:21:50;;;;;;;33.97;18.50;;;2.40;99.90;;;;;;4991528;28;20045;-77
2024/01/24 17:24:16;;;;;;;39.80;20.58;;;2.30;99.90;;;;;;4991410;28;20487;-77
2024/01/24 17:26:41;;;;;;;;;;;2.40;99.90;;;;;;4991376;28;20026;-77
2024/01/24 17:29:07;;;;;;;47.38;25.85;;;2.30;99.90;;;;;;4992500;28;19914;-77
2024/01/24 17:31:34;;;;;;;;;;;2.40;99.90;;;;;;4990832;28;20402;-77
2024/01/24 17:34:00;;;;;;;33.72;16.50;;;2.30;99.90;;;;;;4975289;28;19992;-77
2024/01/24 17:36:25;;;;;;;;;;;2.30;99.90;;;;;;4991988;28;20598;-77
2024/01/24 17:38:51;;;;;;;26.60;13.05;;;2.40;99.90;;;;;;4974437;28;20426;-77
2024/01/24 17:41:16;;;;;;;;;;;2.40;99.90;;;;;;4992853;28;20511;-78
2024/01/24 17:43:42;;;;;;;24.75;14.02;;;2.40;99.90;;;;;;4994120;28;20314;-77
2024/01/24 17:46:07;;;;;;;;;;;2.40;99.90;;;;;;4991907;28;20545;-77
2024/01/24 17:48:33;;;;;;;50.95;22.58;;;2.40;99.90;;;;;;4975340;28;19906;-78
2024/01/24 17:51:02;;;;;;;;;;;2.40;99.90;;;;;;4992670;28;20534;-77
2024/01/24 17:53:28;;;;;;;31.88;18.67;;;2.50;99.90;;;;;;4991994;28;19963;-77
2024/01/24 17:55:54;;;;;;;;;;;2.50;99.90;;;;;;4998973;28;20109;-78
2024/01/24 17:58:19;;;;;;;33.53;14.40;;;2.50;99.90;;;;;;4993746;28;19909;-78
2024/01/24 18:00:45;;;;;;;;;;;2.60;99.90;;;;;;4995188;28;20026;-78
2024/01/24 18:03:11;;;;;;;32.20;16.65;;;2.60;99.90;;;;;;4992956;28;19920;-78
2024/01/24 18:05:37;;;;;;;;;;;2.70;99.90;;;;;;4990420;28;20438;-77
2024/01/24 18:08:05;;;;;;;29.65;15.88;;;2.70;99.90;;;;;;4972374;28;19916;-78
2024/01/24 18:10:31;;;;;;;30.48;17.05;;;2.70;99.90;;;;;;4973268;28;20674;-77
2024/01/24 18:12:57;;;;;;;31.75;16.30;;;2.80;99.90;;;;;;4988197;28;20074;-76
2024/01/24 18:15:24;;;;;;;37.33;21.58;;;2.70;99.90;;;;;;4987530;28;20030;-78
2024/01/24 18:17:53;;;;;;;41.65;23.38;;;2.70;99.90;;;;;;4989361;28;20026;-78
2024/01/24 18:22:54;;;;;;;54.25;33.28;;;2.60;99.90;;;;;;5008078;28;20527;-78
2024/01/24 18:25:20;;;;;;;61.00;34.70;;;2.60;99.90;;;;;;5010244;28;20105;-78
2024/01/24 18:27:45;;;;;;;;;;;2.50;99.90;;;;;;4993624;28;20052;-78
2024/01/24 18:30:12;;;;;;;68.15;35.92;;;2.50;99.90;;;;;;5009550;28;19905;-76
2024/01/24 18:32:39;;;;;;;66.82;37.05;;;2.40;99.90;;;;;;5009284;28;20045;-78
2024/01/24 18:35:05;;;;;;;79.95;40.67;;;2.30;99.90;;;;;;4992278;28;20053;-78
2024/01/24 18:37:32;;;;;;;87.97;44.92;;;2.20;99.90;;;;;;5011249;28;20046;-77
2024/01/24 18:39:58;;;;;;;87.55;43.85;;;2.20;99.90;;;;;;4994070;28;20410;-78
2024/01/24 18:42:24;;;;;;;82.47;41.05;;;2.20;99.90;;;;;;5018872;28;20033;-79
2024/01/24 18:44:52;;;;;;;84.28;40.95;;;2.10;99.90;;;;;;5001091;28;20022;-78
2024/01/24 18:47:18;;;;;;;69.10;37.13;;;2.10;99.90;;;;;;5003642;28;20287;-78
2024/01/24 18:49:44;;;;;;;67.18;36.38;;;2.10;99.90;;;;;;5019268;28;20101;-77
2024/01/24 18:52:12;;;;;;;72.55;37.20;;;2.00;99.90;;;;;;4997057;28;20037;-78
2024/01/24 18:54:38;;;;;;;67.68;38.10;;;2.00;99.90;;;;;;5015690;28;20029;-78
2024/01/24 18:57:05;;;;;;;78.25;39.47;;;2.00;99.90;;;;;;4996983;28;20065;-77